Time;durP1;ratioP1;P1;durP2;ratioP2;P2;SDS_P1;SDS_P2;PMS_P1;PMS_P2;Temp;Humidity;BMP_temperature;BMP_pressure;BME280_temperature;BME280_humidity;BME280_pressure;Samples;Min_cycle;Max_cycle;Signal;HPM_P1;HPM_P2
2023/05/14 00:02:03;;;;;;;;;;;;;;;22.51;50.09;102000.47;5045698;28;19919;-72
2023/05/14 00:04:29;;;;;;;;;;;;;;;22.49;49.92;101997.09;5040800;28;19913;-72
2023/05/14 00:06:54;;;;;;;;;;;;;;;22.49;50.06;102004.38;5032416;28;19917;-72
2023/05/14 00:09:19;;;;;;;;;;;;;;;22.49;50.12;102001.69;5042080;28;19913;-71
2023/05/14 00:11:44;;;;;;;;;;;;;;;22.46;49.71;101997.44;5052950;28;20008;-72
2023/05/14 00:14:10;;;;;;;;;;;;;;;22.46;49.97;101994.72;5049110;28;19930;-72
2023/05/14 00:16:35;;;;;;;;;;;;;;;22.45;49.81;101993.88;5051464;28;19955;-71
2023/05/14 00:19:00;;;;;;;;;;;;;;;22.44;49.86;101988.63;5051473;28;19916;-72
2023/05/14 00:21:25;;;;;;;;;;;;;;;22.43;49.95;101987.78;5031187;28;19914;-72
2023/05/14 00:23:50;;;;;;;;;;;;;;;22.43;49.99;101984.22;5050789;28;19931;-72
2023/05/14 00:26:15;;;;;;;;;;;;;;;22.41;49.67;101978.97;5035345;28;20374;-72
2023/05/14 00:28:41;;;;;;;;;;;;;;;22.41;49.80;101975.41;5039732;28;19917;-72
2023/05/14 00:31:06;;;;;;;;;;;;;;;22.41;49.99;101972.69;5054973;28;19913;-71
2023/05/14 00:33:31;;;;;;;;;;;;;;;22.40;49.72;101973.72;5044113;28;19919;-72
2023/05/14 00:35:56;;;;;;;;;;;;;;;22.38;49.92;101967.59;5051916;28;19921;-71
2023/05/14 00:38:23;;;;;;;;;;;;;;;22.39;49.82;101970.16;5037501;28;19913;-72
2023/05/14 00:40:50;;;;;;;;;;;;;;;22.36;49.74;101958.81;5047967;28;19913;-71
2023/05/14 00:43:19;;;;;;;;;;;;;;;22.36;49.84;101956.94;5050894;28;19944;-71
2023/05/14 00:45:44;;;;;;;;;;;;;;;22.36;49.83;101956.09;5049162;28;19988;-71
2023/05/14 00:48:09;;;;;;;;;;;;;;;22.35;49.87;101955.25;5049674;28;19940;-72
2023/05/14 00:50:35;;;;;;;;;;;;;;;22.34;49.49;101956.22;5036664;28;19917;-71
2023/05/14 00:53:00;;;;;;;;;;;;;;;22.34;49.78;101952.69;5035418;28;20000;-72
2023/05/14 00:55:25;;;;;;;;;;;;;;;22.34;49.81;101963.53;5044143;28;19928;-72
2023/05/14 00:57:50;;;;;;;;;;;;;;;22.32;49.74;101952.84;5057912;28;19960;-72
2023/05/14 01:00:16;;;;;;;;;;;;;;;22.33;49.76;101951.00;5039628;28;19991;-72
2023/05/14 01:02:41;;;;;;;;;;;;;;;22.31;49.37;101940.34;5036337;28;19957;-72
2023/05/14 01:05:06;;;;;;;;;;;;;;;22.30;49.73;101932.34;5041543;28;19920;-72
2023/05/14 01:07:34;;;;;;;;;;;;;;;22.29;49.72;101931.50;5034306;28;19913;-72
2023/05/14 01:10:01;;;;;;;;;;;;;;;22.29;49.43;101936.94;5055762;28;19955;-72
2023/05/14 01:12:45;;;;;;;;;;;;;;;22.29;49.47;101934.22;5036708;28;19921;-72
2023/05/14 01:15:11;;;;;;;;;;;;;;;22.28;49.48;101937.94;5055395;28;19935;-72
2023/05/14 01:17:57;;;;;;;;;;;;;;;22.28;49.32;101940.66;5035743;28;19913;-72
2023/05/14 01:20:22;;;;;;;;;;;;;;;22.28;49.49;101942.53;5059194;28;19917;-72
2023/05/14 01:22:47;;;;;;;;;;;;;;;22.27;49.46;101947.09;5052926;28;19920;-72
2023/05/14 01:25:12;;;;;;;;;;;;;;;22.26;49.39;101950.81;5037702;28;19917;-72
2023/05/14 01:27:53;;;;;;;;;;;;;;;22.27;49.46;101943.53;5044616;28;19917;-72
2023/05/14 01:30:32;;;;;;;;;;;;;;;22.25;49.49;101945.56;5056256;28;19920;-72
2023/05/14 01:32:58;;;;;;;;;;;;;;;22.24;49.38;101941.16;5057290;28;19919;-72
2023/05/14 01:35:27;;;;;;;;;;;;;;;22.24;49.46;101935.75;5035816;28;19927;-72
2023/05/14 01:37:56;;;;;;;;;;;;;;;22.23;49.25;101940.31;5042006;28;19912;-72
2023/05/14 01:40:21;;;;;;;;;;;;;;;22.22;49.30;101941.34;5034157;28;19920;-72
2023/05/14 01:42:47;;;;;;;;;;;;;;;22.21;49.23;101929.63;5047453;28;19913;-72
2023/05/14 01:45:12;;;;;;;;;;;;;;;22.20;49.23;101932.50;5021817;28;19913;-72
2023/05/14 01:47:37;;;;;;;;;;;;;;;22.20;49.22;101929.81;5047247;28;19912;-72
2023/05/14 01:50:02;;;;;;;;;;;;;;;22.19;48.99;101930.81;5035085;28;19921;-72
2023/05/14 01:52:27;;;;;;;;;;;;;;;22.18;48.85;101931.84;5054871;28;19963;-72
2023/05/14 01:54:53;;;;;;;;;;;;;;;22.18;49.04;101929.13;5054621;28;19921;-72
2023/05/14 01:57:18;;;;;;;;;;;;;;;22.17;49.06;101928.28;5034620;28;19913;-72
2023/05/14 01:59:43;;;;;;;;;;;;;;;22.16;49.18;101923.88;5042907;28;20031;-72
2023/05/14 02:02:08;;;;;;;;;;;;;;;22.15;48.84;101922.16;5045189;28;19917;-71
2023/05/14 02:04:33;;;;;;;;;;;;;;;22.15;48.93;101916.75;5046917;28;19924;-72
2023/05/14 02:06:58;;;;;;;;;;;;;;;22.14;48.70;101914.22;5041786;28;19924;-72
2023/05/14 02:09:24;;;;;;;;;;;;;;;22.14;49.06;101915.06;5051760;28;19935;-72
2023/05/14 02:11:49;;;;;;;;;;;;;;;22.12;48.66;101908.06;5038265;28;19920;-72
2023/05/14 02:14:14;;;;;;;;;;;;;;;22.12;48.90;101917.06;5051896;28;19917;-72
2023/05/14 02:16:39;;;;;;;;;;;;;;;22.12;48.81;101916.19;5050624;28;19923;-72
2023/05/14 02:19:05;;;;;;;;;;;;;;;22.11;48.75;101915.34;5053158;28;19940;-72
2023/05/14 02:21:30;;;;;;;;;;;;;;;22.09;48.68;101911.09;5038725;28;19917;-72
2023/05/14 02:23:56;;;;;;;;;;;;;;;22.07;48.86;101908.56;5045715;28;19913;-72
2023/05/14 02:26:21;;;;;;;;;;;;;;;22.07;48.87;101905.03;5058561;28;19913;-72
2023/05/14 02:28:46;;;;;;;;;;;;;;;22.06;49.03;101906.88;5054201;28;19913;-72
2023/05/14 02:31:12;;;;;;;;;;;;;;;22.05;48.58;101904.34;5057131;28;19912;-72
2023/05/14 02:33:37;;;;;;;;;;;;;;;22.04;48.83;101903.47;5054893;28;19913;-72
2023/05/14 02:36:02;;;;;;;;;;;;;;;22.04;48.79;101905.34;5051479;28;19917;-72
2023/05/14 02:38:27;;;;;;;;;;;;;;;22.02;48.88;101893.84;5052198;28;19919;-72
2023/05/14 02:40:52;;;;;;;;;;;;;;;22.02;48.85;101901.97;5032314;28;19917;-72
2023/05/14 02:43:17;;;;;;;;;;;;;;;22.01;48.75;101905.69;5052629;28;19913;-72
2023/05/14 02:45:43;;;;;;;;;;;;;;;22.00;48.88;101902.13;5050809;28;20506;-72
2023/05/14 02:48:08;;;;;;;;;;;;;;;21.99;48.78;101903.13;5053624;28;19917;-72
2023/05/14 02:50:33;;;;;;;;;;;;;;;21.98;48.79;101897.91;5051689;28;19924;-72
2023/05/14 02:52:58;;;;;;;;;;;;;;;21.99;48.64;101899.59;5055913;28;19916;-72
2023/05/14 02:55:25;;;;;;;;;;;;;;;21.98;48.59;101903.31;5054985;28;19920;-71
2023/05/14 02:57:52;;;;;;;;;;;;;;;21.96;48.63;101898.91;5052217;28;19920;-72
2023/05/14 03:00:17;;;;;;;;;;;;;;;21.96;48.80;101895.34;5040662;28;19913;-72
2023/05/14 03:02:43;;;;;;;;;;;;;;;21.95;48.64;101893.66;5048914;28;20420;-72
2023/05/14 03:05:08;;;;;;;;;;;;;;;21.95;48.44;101889.06;5037206;28;19917;-71
2023/05/14 03:07:33;;;;;;;;;;;;;;;21.94;48.54;101898.22;5051749;28;19935;-72
2023/05/14 03:09:59;;;;;;;;;;;;;;;21.94;48.56;101890.09;5033214;28;19924;-72
2023/05/14 03:12:24;;;;;;;;;;;;;;;21.93;48.37;101890.28;5040157;28;19960;-72
2023/05/14 03:14:49;;;;;;;;;;;;;;;21.92;48.49;101883.16;5034941;28;20277;-72
2023/05/14 03:17:15;;;;;;;;;;;;;;;21.93;48.55;101876.72;5032375;28;19944;-72
2023/05/14 03:19:40;;;;;;;;;;;;;;;21.91;48.60;101878.75;5054645;28;20920;-72
2023/05/14 03:22:05;;;;;;;;;;;;;;;21.91;48.46;101882.28;5026868;28;19914;-72
2023/05/14 03:24:30;;;;;;;;;;;;;;;21.91;48.53;101876.03;5031338;28;19917;-72
2023/05/14 03:26:55;;;;;;;;;;;;;;;21.89;48.27;101881.63;5042550;28;19913;-72
2023/05/14 03:29:20;;;;;;;;;;;;;;;21.89;48.30;101875.38;5052501;28;19967;-72
2023/05/14 03:31:46;;;;;;;;;;;;;;;21.89;48.27;101875.38;5052822;28;20024;-72
2023/05/14 03:34:11;;;;;;;;;;;;;;;21.88;48.58;101879.09;5036425;28;20386;-72
2023/05/14 03:36:38;;;;;;;;;;;;;;;21.87;48.15;101872.81;5032750;28;20378;-72
2023/05/14 03:39:05;;;;;;;;;;;;;;;21.87;48.27;101882.78;5032013;28;19917;-71
2023/05/14 03:41:30;;;;;;;;;;;;;;;21.85;48.34;101872.13;5049912;28;19944;-72
2023/05/14 03:43:56;;;;;;;;;;;;;;;21.85;48.07;101880.25;5051133;28;19913;-72
2023/05/14 03:46:21;;;;;;;;;;;;;;;21.85;48.46;101882.13;5049401;28;19964;-72
2023/05/14 03:48:46;;;;;;;;;;;;;;;21.84;48.09;101878.56;5054850;28;20007;-72
2023/05/14 03:51:11;;;;;;;;;;;;;;;21.84;48.50;101877.72;5050228;28;20388;-72
2023/05/14 03:53:36;;;;;;;;;;;;;;;21.83;48.25;101873.31;5057517;28;19913;-72
2023/05/14 03:56:01;;;;;;;;;;;;;;;21.81;48.13;101873.47;5053283;28;19921;-74
2023/05/14 03:58:27;;;;;;;;;;;;;;;21.82;48.19;101874.31;5042844;28;19963;-72
2023/05/14 04:00:52;;;;;;;;;;;;;;;21.81;48.27;101873.47;5040532;28;19971;-72
2023/05/14 04:03:17;;;;;;;;;;;;;;;21.80;48.32;101866.38;5032173;28;19962;-72
2023/05/14 04:05:42;;;;;;;;;;;;;;;21.80;48.26;101865.53;5048627;28;19924;-72
2023/05/14 04:08:08;;;;;;;;;;;;;;;21.80;48.26;101869.09;5056228;28;19916;-72
2023/05/14 04:10:33;;;;;;;;;;;;;;;21.80;48.40;101866.38;5052662;28;19948;-72
2023/05/14 04:12:58;;;;;;;;;;;;;;;21.80;48.58;101870.94;5043507;28;19925;-72
2023/05/14 04:15:23;;;;;;;;;;;;;;;21.79;48.32;101859.28;5053883;28;19921;-72
2023/05/14 04:17:48;;;;;;;;;;;;;;;21.80;48.41;101862.81;5049245;28;19970;-72
2023/05/14 04:20:14;;;;;;;;;;;;;;;21.78;48.44;101860.25;5048722;28;19921;-72
2023/05/14 04:22:39;;;;;;;;;;;;;;;21.78;48.50;101860.25;5053071;28;20058;-72
2023/05/14 04:25:05;;;;;;;;;;;;;;;21.79;48.78;101866.53;5049928;28;19913;-72
2023/05/14 04:27:31;;;;;;;;;;;;;;;21.78;49.09;101871.09;5052666;28;19913;-72
2023/05/14 04:29:57;;;;;;;;;;;;;;;21.79;48.76;101866.53;5048277;28;19913;-72
2023/05/14 04:32:22;;;;;;;;;;;;;;;21.77;49.22;101858.56;5048746;28;19913;-72
2023/05/14 04:34:47;;;;;;;;;;;;;;;21.77;49.08;101861.28;5033977;28;19947;-71
2023/05/14 04:37:12;;;;;;;;;;;;;;;21.77;49.02;101864.00;5049268;28;19921;-70
2023/05/14 04:39:38;;;;;;;;;;;;;;;21.77;49.23;101866.69;5051401;28;20294;-70
2023/05/14 04:42:03;;;;;;;;;;;;;;;21.77;49.05;101858.56;5051522;28;19916;-70
2023/05/14 04:44:28;;;;;;;;;;;;;;;21.77;49.34;101861.28;5051349;28;19916;-71
2023/05/14 04:46:53;;;;;;;;;;;;;;;21.77;49.48;101860.44;5048861;28;19921;-71
2023/05/14 04:49:19;;;;;;;;;;;;;;;21.76;49.43;101865.00;5057128;28;20004;-73
2023/05/14 04:51:44;;;;;;;;;;;;;;;21.76;49.44;101864.16;5049059;28;20008;-73
2023/05/14 04:54:10;;;;;;;;;;;;;;;21.77;49.73;101865.84;5054677;28;19970;-71
2023/05/14 04:56:35;;;;;;;;;;;;;;;21.76;49.40;101859.59;5051377;28;20123;-72
2023/05/14 04:59:00;;;;;;;;;;;;;;;21.76;49.67;101867.72;5048824;28;19919;-72
2023/05/14 05:01:25;;;;;;;;;;;;;;;21.76;49.59;101864.16;5052626;28;19917;-72
2023/05/14 05:03:51;;;;;;;;;;;;;;;21.75;49.70;101865.16;5049068;28;19917;-72
2023/05/14 05:06:16;;;;;;;;;;;;;;;21.75;49.91;101860.63;5049161;28;19913;-71
2023/05/14 05:08:41;;;;;;;;;;;;;;;21.74;49.94;101858.88;5031812;28;20813;-72
2023/05/14 05:11:06;;;;;;;;;;;;;;;21.74;49.60;101864.31;5052484;28;19947;-73
2023/05/14 05:13:31;;;;;;;;;;;;;;;21.75;49.75;101862.44;5049053;28;19931;-72
2023/05/14 05:15:57;;;;;;;;;;;;;;;21.74;49.76;101860.75;5055437;28;19917;-72
2023/05/14 05:18:22;;;;;;;;;;;;;;;21.74;49.58;101868.88;5043019;28;19913;-73
2023/05/14 05:20:47;;;;;;;;;;;;;;;21.74;49.73;101866.16;5051665;28;19924;-72
2023/05/14 05:23:12;;;;;;;;;;;;;;;21.74;49.77;101874.28;5036034;28;20016;-72
2023/05/14 05:25:37;;;;;;;;;;;;;;;21.74;49.62;101877.00;5049047;28;19919;-73
2023/05/14 05:28:03;;;;;;;;;;;;;;;21.73;49.71;101878.84;5049924;28;19917;-74
2023/05/14 05:30:29;;;;;;;;;;;;;;;21.73;49.48;101878.84;5050021;28;19917;-73
2023/05/14 05:32:55;;;;;;;;;;;;;;;21.73;49.78;101883.44;5049359;28;19917;-73
2023/05/14 05:35:21;;;;;;;;;;;;;;;21.73;49.75;101883.44;5048506;28;19922;-73
2023/05/14 05:37:46;;;;;;;;;;;;;;;21.73;49.59;101886.13;5043627;28;19928;-71
2023/05/14 05:40:12;;;;;;;;;;;;;;;21.71;49.81;101892.56;5047705;28;19921;-73
2023/05/14 05:42:38;;;;;;;;;;;;;;;21.71;49.69;101880.91;5053245;28;19913;-73
2023/05/14 05:45:03;;;;;;;;;;;;;;;21.70;49.77;101887.28;5055482;28;19921;-74
2023/05/14 05:47:28;;;;;;;;;;;;;;;21.70;49.63;101888.16;5053086;28;19916;-72
2023/05/14 05:49:54;;;;;;;;;;;;;;;21.70;49.66;101885.44;5061131;28;19917;-72
2023/05/14 05:52:19;;;;;;;;;;;;;;;21.70;49.64;101885.44;5051483;28;19920;-71
2023/05/14 05:54:44;;;;;;;;;;;;;;;21.69;49.72;101894.56;5046256;28;19988;-72
2023/05/14 05:57:09;;;;;;;;;;;;;;;21.69;49.60;101889.16;5035579;28;19928;-71
2023/05/14 05:59:35;;;;;;;;;;;;;;;21.69;49.71;101888.31;5055550;28;19940;-73
2023/05/14 06:02:00;;;;;;;;;;;;;;;21.69;49.44;101888.31;5053019;28;19913;-72
2023/05/14 06:04:25;;;;;;;;;;;;;;;21.69;49.57;101885.59;5052602;28;19924;-73
2023/05/14 06:06:50;;;;;;;;;;;;;;;21.68;49.34;101881.22;5051446;28;19917;-72
2023/05/14 06:09:15;;;;;;;;;;;;;;;21.68;49.48;101883.91;5058113;28;19943;-73
2023/05/14 06:11:41;;;;;;;;;;;;;;;21.67;49.28;101888.50;5055145;28;19909;-72
2023/05/14 06:14:06;;;;;;;;;;;;;;;21.66;49.27;101889.50;5054394;28;19921;-73
2023/05/14 06:16:31;;;;;;;;;;;;;;;21.66;49.52;101888.63;5057679;28;20028;-72
2023/05/14 06:18:56;;;;;;;;;;;;;;;21.66;49.61;101888.63;5042475;28;19928;-71
2023/05/14 06:21:21;;;;;;;;;;;;;;;21.66;49.53;101883.22;5054457;28;19924;-72
2023/05/14 06:23:47;;;;;;;;;;;;;;;21.65;49.48;101887.78;5054959;28;19913;-72
2023/05/14 06:26:12;;;;;;;;;;;;;;;21.64;49.74;101890.66;5051164;28;19952;-72
2023/05/14 06:28:37;;;;;;;;;;;;;;;21.65;49.53;101895.06;5046023;28;19924;-72
2023/05/14 06:31:02;;;;;;;;;;;;;;;21.65;49.47;101897.78;5050507;28;19912;-71
2023/05/14 06:33:30;;;;;;;;;;;;;;;21.65;49.50;101895.06;5052875;28;19916;-72
2023/05/14 06:35:57;;;;;;;;;;;;;;;21.66;49.57;101888.63;5045781;28;19927;-72
2023/05/14 06:38:22;;;;;;;;;;;;;;;21.66;49.66;101891.34;5055346;28;19917;-72
2023/05/14 06:40:47;;;;;;;;;;;;;;;21.66;49.48;101889.50;5040911;28;20065;-72
2023/05/14 06:43:13;;;;;;;;;;;;;;;21.66;49.77;101892.22;5057622;28;19917;-72
2023/05/14 06:45:38;;;;;;;;;;;;;;;21.66;49.50;101886.81;5055535;28;19921;-72
2023/05/14 06:48:03;;;;;;;;;;;;;;;21.67;49.65;101882.22;5053051;28;19925;-72
2023/05/14 06:50:28;;;;;;;;;;;;;;;21.67;49.60;101882.22;5038174;28;20009;-72
2023/05/14 06:52:53;;;;;;;;;;;;;;;21.67;49.57;101877.66;5053353;28;19920;-71
2023/05/14 06:55:19;;;;;;;;;;;;;;;21.66;49.66;101875.97;5058614;28;19944;-72
2023/05/14 06:57:44;;;;;;;;;;;;;;;21.67;49.84;101883.06;5037858;28;19945;-72
2023/05/14 07:00:10;;;;;;;;;;;;;;;21.67;49.79;101882.22;5055121;28;20555;-72
2023/05/14 07:02:35;;;;;;;;;;;;;;;21.67;49.65;101885.78;5054372;28;19964;-72
2023/05/14 07:05:00;;;;;;;;;;;;;;;21.67;49.74;101877.66;5053298;28;19917;-72
2023/05/14 07:07:25;;;;;;;;;;;;;;;21.67;49.85;101888.50;5054208;28;19924;-73
2023/05/14 07:09:51;;;;;;;;;;;;;;;21.66;49.77;101873.28;5057265;28;20294;-74
2023/05/14 07:12:16;;;;;;;;;;;;;;;21.67;49.72;101879.53;5039475;28;19928;-72
2023/05/14 07:14:41;;;;;;;;;;;;;;;21.67;49.80;101877.66;5055585;28;19928;-72
2023/05/14 07:17:06;;;;;;;;;;;;;;;21.67;49.76;101874.97;5059883;28;19917;-72
2023/05/14 07:19:31;;;;;;;;;;;;;;;21.66;49.71;101872.41;5051156;28;19913;-71
2023/05/14 07:21:57;;;;;;;;;;;;;;;21.66;49.59;101875.97;5048922;28;19924;-72
2023/05/14 07:24:23;;;;;;;;;;;;;;;21.66;49.50;101880.50;5052222;28;19916;-71
2023/05/14 07:26:48;;;;;;;;;;;;;;;21.65;49.78;101871.56;5051976;28;19928;-72
2023/05/14 07:29:13;;;;;;;;;;;;;;;21.64;49.82;101869.88;5031675;28;19983;-72
2023/05/14 07:31:38;;;;;;;;;;;;;;;21.65;49.83;101873.41;5051459;28;19923;-71
2023/05/14 07:34:03;;;;;;;;;;;;;;;21.65;49.74;101868.00;5050619;28;19985;-71
2023/05/14 07:36:28;;;;;;;;;;;;;;;21.64;49.68;101864.44;5050873;28;19925;-71
2023/05/14 07:38:54;;;;;;;;;;;;;;;21.65;49.89;101862.59;5058502;28;19921;-71
2023/05/14 07:41:19;;;;;;;;;;;;;;;21.65;49.73;101862.59;5055757;28;19946;-71
2023/05/14 07:43:45;;;;;;;;;;;;;;;21.65;49.59;101849.91;5042572;28;19921;-72
2023/05/14 07:46:10;;;;;;;;;;;;;;;21.66;49.78;101858.88;5040448;28;19921;-72
2023/05/14 07:48:35;;;;;;;;;;;;;;;21.66;49.99;101851.63;5039804;28;19947;-73
2023/05/14 07:51:01;;;;;;;;;;;;;;;21.64;49.59;101850.91;5059662;28;19912;-72
2023/05/14 07:53:26;;;;;;;;;;;;;;;21.65;49.97;101851.75;5052511;28;19921;-72
2023/05/14 07:55:51;;;;;;;;;;;;;;;21.65;49.67;101849.06;5054267;28;19917;-72
2023/05/14 07:58:16;;;;;;;;;;;;;;;21.64;49.97;101845.50;5050563;28;19917;-72
2023/05/14 08:00:42;;;;;;;;;;;;;;;21.64;49.79;101839.25;5055605;28;19943;-72
2023/05/14 08:03:07;;;;;;;;;;;;;;;21.65;49.91;101849.06;5056551;28;19920;-71
2023/05/14 08:05:32;;;;;;;;;;;;;;;21.64;50.08;101850.91;5043482;28;19917;-72
2023/05/14 08:07:57;;;;;;;;;;;;;;;21.64;50.06;101848.22;5049458;28;19936;-72
2023/05/14 08:10:22;;;;;;;;;;;;;;;21.66;49.86;101854.31;5055413;28;19917;-72
2023/05/14 08:12:47;;;;;;;;;;;;;;;21.66;49.67;101845.31;5054551;28;19925;-71
2023/05/14 08:15:13;;;;;;;;;;;;;;;21.66;49.82;101848.03;5057944;28;19928;-71
2023/05/14 08:17:38;;;;;;;;;;;;;;;21.66;49.90;101843.50;5036083;28;20281;-72
2023/05/14 08:20:05;;;;;;;;;;;;;;;21.64;49.91;101848.22;5052787;28;19921;-71
2023/05/14 08:22:30;;;;;;;;;;;;;;;21.65;49.99;101852.59;5036945;28;19944;-72
2023/05/14 08:24:55;;;;;;;;;;;;;;;21.66;49.65;101853.44;5058376;28;19928;-72
2023/05/14 08:27:21;;;;;;;;;;;;;;;21.67;49.73;101857.88;5053582;28;19919;-72
2023/05/14 08:29:46;;;;;;;;;;;;;;;21.67;50.08;101849.75;5048036;28;19921;-73
2023/05/14 08:32:12;;;;;;;;;;;;;;;21.65;49.92;101838.22;5058029;28;20331;-72
2023/05/14 08:34:37;;;;;;;;;;;;;;;21.66;49.88;101842.63;5057871;28;19952;-72
2023/05/14 08:37:02;;;;;;;;;;;;;;;21.66;50.05;101835.38;5058645;28;19921;-73
2023/05/14 08:39:27;;;;;;;;;;;;;;;21.67;49.85;101841.63;5057942;28;19970;-71
2023/05/14 08:41:52;;;;;;;;;;;;;;;21.67;49.86;101844.34;5038332;28;19917;-73
2023/05/14 08:44:18;;;;;;;;;;;;;;;21.66;50.03;101837.22;5041839;28;19940;-72
2023/05/14 08:46:44;;;;;;;;;;;;;;;21.66;49.80;101840.78;5037777;28;19917;-72
2023/05/14 08:49:14;;;;;;;;;;;;;;;21.67;49.89;101841.63;5032975;28;19913;-72
2023/05/14 08:51:40;;;;;;;;;;;;;;;21.67;50.08;101841.63;5061772;28;19913;-72
2023/05/14 08:54:05;;;;;;;;;;;;;;;21.67;49.82;101842.47;5052240;28;19920;-72
2023/05/14 08:56:31;;;;;;;;;;;;;;;21.67;50.20;101842.47;5035697;28;19943;-72
2023/05/14 08:58:56;;;;;;;;;;;;;;;21.67;49.90;101834.34;5030541;28;19919;-72
2023/05/14 09:01:21;;;;;;;;;;;;;;;21.67;50.16;101828.94;5034442;28;19921;-72
2023/05/14 09:03:46;;;;;;;;;;;;;;;21.68;50.17;101835.19;5042075;28;19925;-72
2023/05/14 09:06:12;;;;;;;;;;;;;;;21.68;50.25;101838.75;5057921;28;19912;-72
2023/05/14 09:08:37;;;;;;;;;;;;;;;21.68;50.15;101827.09;5033374;28;19987;-72
2023/05/14 09:11:02;;;;;;;;;;;;;;;21.69;50.09;101826.06;5041065;28;20365;-71
2023/05/14 09:13:27;;;;;;;;;;;;;;;21.68;50.10;101827.09;5053157;28;19921;-72
2023/05/14 09:15:53;;;;;;;;;;;;;;;21.68;50.10;101830.63;5043079;28;20629;-71
2023/05/14 09:18:18;;;;;;;;;;;;;;;21.68;50.00;101825.22;5035653;28;19917;-72
2023/05/14 09:20:43;;;;;;;;;;;;;;;21.69;50.10;101829.63;5054971;28;19921;-71
2023/05/14 09:23:08;;;;;;;;;;;;;;;21.68;50.20;101822.50;5054095;28;19917;-71
2023/05/14 09:25:33;;;;;;;;;;;;;;;21.69;50.21;101823.34;5038585;28;19920;-71
2023/05/14 09:27:59;;;;;;;;;;;;;;;21.70;50.26;101819.63;5057717;28;19939;-72
2023/05/14 09:30:25;;;;;;;;;;;;;;;21.70;50.19;101822.34;5047580;28;19967;-72
2023/05/14 09:32:52;;;;;;;;;;;;;;;21.71;50.29;101821.34;5040054;28;19970;-71
2023/05/14 09:35:18;;;;;;;;;;;;;;;21.70;49.91;101815.06;5052648;28;19940;-71
2023/05/14 09:37:45;;;;;;;;;;;;;;;21.72;50.22;101812.22;5047538;28;19916;-71
2023/05/14 09:40:10;;;;;;;;;;;;;;;21.71;50.02;101805.94;5028871;28;19948;-71
2023/05/14 09:42:36;;;;;;;;;;;;;;;21.73;50.02;101802.22;5057641;28;19917;-72
2023/05/14 09:45:03;;;;;;;;;;;;;;;21.74;50.15;101801.19;5055722;28;20273;-72
2023/05/14 09:47:28;;;;;;;;;;;;;;;21.74;50.07;101799.34;5055599;28;19913;-72
2023/05/14 09:49:53;;;;;;;;;;;;;;;21.74;50.09;101795.78;5057381;28;19921;-72
2023/05/14 09:52:19;;;;;;;;;;;;;;;21.75;50.14;101792.94;5054727;28;19962;-70
2023/05/14 09:54:45;;;;;;;;;;;;;;;21.76;50.20;101794.63;5053483;28;19917;-72
2023/05/14 09:57:10;;;;;;;;;;;;;;;21.77;49.94;101792.75;5059789;28;19956;-72
2023/05/14 09:59:35;;;;;;;;;;;;;;;21.78;50.19;101791.75;5053902;28;20492;-73
2023/05/14 10:02:00;;;;;;;;;;;;;;;21.79;50.29;101788.00;5052121;28;19913;-72
2023/05/14 10:04:25;;;;;;;;;;;;;;;21.79;50.39;101782.59;5051979;28;19917;-73
2023/05/14 10:06:51;;;;;;;;;;;;;;;21.81;50.51;101786.84;5036025;28;19917;-72
2023/05/14 10:09:16;;;;;;;;;;;;;;;21.82;50.23;101785.81;5035082;28;19917;-72
2023/05/14 10:11:41;;;;;;;;;;;;;;;21.82;50.73;101780.41;5052352;28;19921;-72
2023/05/14 10:14:08;;;;;;;;;;;;;;;21.84;50.82;101782.97;5039983;28;19921;-70
2023/05/14 10:16:34;;;;;;;;;;;;;;;21.86;50.92;101781.78;5054981;28;20255;-72
2023/05/14 10:19:18;;;;;;;;;;;;;;;21.86;50.95;101776.34;5033954;28;19913;-75
2023/05/14 10:21:44;;;;;;;;;;;;;;;21.88;50.72;101778.91;5040934;28;19920;-70
2023/05/14 10:24:10;;;;;;;;;;;;;;;21.89;50.96;101780.59;5051809;28;19924;-73
2023/05/14 10:26:38;;;;;;;;;;;;;;;21.90;50.65;101780.44;5051253;28;19917;-73
2023/05/14 10:29:03;;;;;;;;;;;;;;;21.92;51.01;101775.69;5043239;28;19917;-72
2023/05/14 10:31:44;;;;;;;;;;;;;;;21.93;50.72;101776.53;5045336;28;19913;-72
2023/05/14 10:34:30;;;;;;;;;;;;;;;21.95;50.84;101774.50;5056995;28;19952;-72
2023/05/14 10:36:57;;;;;;;;;;;;;;;21.96;50.62;101768.06;5065337;28;20025;-71
2023/05/14 10:39:22;;;;;;;;;;;;;;;;;;5042841;28;19927;-72
2023/05/14 10:41:48;;;;;;;;;;;;;;;21.99;50.86;101767.75;5062052;28;19921;-73
2023/05/14 10:44:13;;;;;;;;;;;;;;;22.00;50.86;101766.72;5036020;28;20378;-73
2023/05/14 10:46:38;;;;;;;;;;;;;;;22.00;50.75;101766.72;5035322;28;19924;-72
2023/05/14 10:49:03;;;;;;;;;;;;;;;22.02;50.93;101763.84;5045610;28;19944;-72
2023/05/14 10:51:28;;;;;;;;;;;;;;;22.04;50.60;101761.81;5037615;28;19924;-72
2023/05/14 10:53:53;;;;;;;;;;;;;;;22.05;50.50;101758.97;5046276;28;19966;-72
2023/05/14 10:56:19;;;;;;;;;;;;;;;22.06;50.63;101752.53;5038125;28;19917;-72
2023/05/14 10:58:44;;;;;;;;;;;;;;;22.05;48.61;101752.69;5052679;28;20384;-72
2023/05/14 11:01:11;;;;;;;;;;;;;;;22.07;49.57;101751.50;5042603;28;19923;-72
2023/05/14 11:03:40;;;;;;;;;;;;;;;22.09;49.98;101754.03;5046065;28;19919;-72
2023/05/14 11:06:06;;;;;;;;;;;;;;;22.11;50.37;101742.00;5059498;28;19921;-71
2023/05/14 11:08:31;;;;;;;;;;;;;;;22.13;50.44;101740.03;5054199;28;19920;-71
2023/05/14 11:10:56;;;;;;;;;;;;;;;22.14;50.40;101733.59;5044295;28;19917;-72
2023/05/14 11:13:21;;;;;;;;;;;;;;;22.15;50.52;101729.88;5051469;28;19931;-72
2023/05/14 11:15:47;;;;;;;;;;;;;;;22.16;50.32;101728.00;5052133;28;19921;-72
2023/05/14 11:18:12;;;;;;;;;;;;;;;22.17;50.22;101735.97;5052727;28;19917;-72
2023/05/14 11:20:38;;;;;;;;;;;;;;;22.19;50.13;101738.50;5050192;28;19972;-72
2023/05/14 11:23:03;;;;;;;;;;;;;;;22.20;50.46;101734.75;5056663;28;19920;-72
2023/05/14 11:25:28;;;;;;;;;;;;;;;22.21;50.14;101726.47;5049976;28;19948;-72
2023/05/14 11:27:57;;;;;;;;;;;;;;;22.23;50.36;101725.47;5056275;28;19925;-72
2023/05/14 11:30:22;;;;;;;;;;;;;;;22.24;50.10;101727.16;5035858;28;19916;-72
2023/05/14 11:32:47;;;;;;;;;;;;;;;22.24;50.26;101728.00;5052111;28;19927;-72
2023/05/14 11:35:13;;;;;;;;;;;;;;;22.25;50.51;101718.00;5056057;28;19917;-72
2023/05/14 11:37:38;;;;;;;;;;;;;;;22.26;50.32;101725.97;5050644;28;19921;-72
2023/05/14 11:40:06;;;;;;;;;;;;;;;22.28;50.51;101721.22;5048476;28;19941;-72
2023/05/14 11:42:31;;;;;;;;;;;;;;;22.29;50.67;101714.78;5032542;28;19913;-72
2023/05/14 11:44:57;;;;;;;;;;;;;;;22.30;50.31;101713.78;5034908;28;19924;-72
2023/05/14 11:47:22;;;;;;;;;;;;;;;22.32;50.33;101710.88;5049912;28;19913;-72
2023/05/14 11:49:48;;;;;;;;;;;;;;;22.33;50.77;101704.44;5055495;28;20014;-71
2023/05/14 11:52:13;;;;;;;;;;;;;;;22.33;50.27;101701.72;5051183;28;19921;-72
2023/05/14 11:54:39;;;;;;;;;;;;;;;22.34;50.56;101706.97;5043780;28;19913;-71
2023/05/14 11:57:15;;;;;;;;;;;;;;;22.35;50.66;101699.72;5055834;28;19925;-71
2023/05/14 11:59:40;;;;;;;;;;;;;;;22.36;50.37;101701.41;5052568;28;19944;-72
2023/05/14 12:02:07;;;;;;;;;;;;;;;22.39;50.73;101703.78;5058131;28;19924;-72
2023/05/14 12:04:33;;;;;;;;;;;;;;;22.39;50.76;101692.94;5031392;28;19992;-71
2023/05/14 12:06:58;;;;;;;;;;;;;;;22.41;50.63;101696.31;5050768;28;19913;-72
2023/05/14 12:09:24;;;;;;;;;;;;;;;22.42;50.30;101696.13;5051861;28;19913;-72
2023/05/14 12:11:50;;;;;;;;;;;;;;;22.44;50.29;101691.38;5054930;28;19955;-71
2023/05/14 12:14:15;;;;;;;;;;;;;;;22.45;50.58;101689.53;5050302;28;19924;-73
2023/05/14 12:16:42;;;;;;;;;;;;;;;22.45;50.89;101697.66;5058195;28;19921;-72
2023/05/14 12:19:10;;;;;;;;;;;;;;;22.45;50.83;101690.38;5048900;28;20297;-72
2023/05/14 12:21:35;;;;;;;;;;;;;;;22.48;51.08;101685.63;5054960;28;19925;-72
2023/05/14 12:24:01;;;;;;;;;;;;;;;22.49;50.74;101690.03;5055579;28;19913;-71
2023/05/14 12:26:26;;;;;;;;;;;;;;;22.49;51.02;101688.16;5034947;28;20006;-72
2023/05/14 12:28:56;;;;;;;;;;;;;;;22.50;51.07;101673.56;5053384;28;19913;-72
2023/05/14 12:31:31;;;;;;;;;;;;;;;22.52;51.23;101678.84;5041300;28;19917;-72